KDET/DET METAR and TAF weather

Enter ICAO airport designator
Station Type Date Time Source
KDET METAR 2022/12/04 11:53 UTC NOAA

KDET 041153Z 22008KT 9SM CLR M04/M08 A3026 RMK AO2 SLP254 70004 T10441083 11022 21050 56019


Station Type Date Time Source
KDET Decoded METAR 2022/12/04 11:53 UTC NOAA

DETROIT CITY AIRPORT, MI, United States (KDET) 42-25N 083-01W 190M
Dec 04, 2022 - 06:53 AM EST / 2022.12.04 1153 UTC
Wind: from the SW (220 degrees) at 9 MPH (8 KT):0
Visibility: 9 mile(s):0
Sky conditions: clear
Temperature: 24.1 F (-4.4 C)
Windchill: 14 F (-10 C):1
Dew Point: 17.1 F (-8.3 C)
Relative Humidity: 74%
Pressure (altimeter): 30.26 in. Hg (1024 hPa)
Pressure tendency: 0.06 inches (1.9 hPa) lower than three hours ago
ob: KDET 041153Z 22008KT 9SM CLR M04/M08 A3026 RMK AO2 SLP254 70004 T10441083 11022 21050 56019
cycle: 12

Station Type Date Time Source
KDET TAF 2022/12/04 12:24 UTC NOAA

TAF KDET 041121Z 0412/0512 23006KT P6SM SKC
FM041500 23012G23KT P6SM FEW250
FM042300 22009KT P6SM SKC
FM051100 20010KT P6SM BKN200

Example: see airport list